createdAt,value
2023-01-17T00:02:07.183Z,2.67
2023-01-17T00:07:31.824Z,2.60
2023-01-17T00:12:35.618Z,2.89
2023-01-17T00:17:39.751Z,2.34
2023-01-17T00:23:11.820Z,2.39
2023-01-17T00:28:15.688Z,2.60
2023-01-17T00:33:19.802Z,2.85
2023-01-17T00:38:25.781Z,2.35
2023-01-17T00:43:49.535Z,2.88
2023-01-17T00:49:11.984Z,2.64
2023-01-17T00:54:34.466Z,2.66
2023-01-17T00:59:56.499Z,2.68
2023-01-17T01:05:19.050Z,2.61
2023-01-17T01:10:41.403Z,2.88
2023-01-17T01:16:03.760Z,2.91
2023-01-17T01:21:25.679Z,3.13
2023-01-17T01:26:57.607Z,2.98
2023-01-17T01:32:29.858Z,2.59
2023-01-17T01:37:34.444Z,2.83
2023-01-17T01:42:37.786Z,2.81
2023-01-17T01:47:41.692Z,2.84
2023-01-17T01:52:49.087Z,3.03
2023-01-17T01:57:56.281Z,2.90
2023-01-17T02:03:06.526Z,2.80
2023-01-17T02:08:13.574Z,2.65
2023-01-17T02:13:21.362Z,2.83
2023-01-17T02:18:36.700Z,3.27
2023-01-17T02:23:58.859Z,3.24
2023-01-17T02:29:20.826Z,3.31
2023-01-17T02:34:42.329Z,3.31
2023-01-17T02:40:11.014Z,3.08
2023-01-17T02:45:20.370Z,2.60
2023-01-17T02:50:32.011Z,2.13
2023-01-17T02:56:04.632Z,2.98
2023-01-17T03:01:14.099Z,3.02
2023-01-17T03:06:24.422Z,2.53
2023-01-17T03:11:28.174Z,2.68
2023-01-17T03:16:33.980Z,3.11
2023-01-17T03:21:37.651Z,3.64
2023-01-17T03:26:41.267Z,3.11
2023-01-17T03:31:44.652Z,2.34
2023-01-17T03:36:47.992Z,2.78
2023-01-17T03:41:51.378Z,2.59
2023-01-17T03:46:55.093Z,2.58
2023-01-17T03:51:58.590Z,2.50
2023-01-17T03:57:02.038Z,2.44
2023-01-17T04:02:06.125Z,2.54
2023-01-17T04:07:09.622Z,2.93
2023-01-17T04:12:12.988Z,2.60
2023-01-17T04:17:19.431Z,2.93
2023-01-17T04:22:22.836Z,2.26
2023-01-17T04:27:26.440Z,3.12
2023-01-17T04:32:30.991Z,2.77
2023-01-17T04:37:34.350Z,2.72
2023-01-17T04:42:38.918Z,3.07
2023-01-17T04:47:52.310Z,3.24
2023-01-17T04:52:55.677Z,2.31
2023-01-17T04:57:59.271Z,2.67
2023-01-17T05:03:03.536Z,2.86
2023-01-17T05:08:06.987Z,2.60
2023-01-17T05:13:10.698Z,2.60
2023-01-17T05:18:16.320Z,3.03
2023-01-17T05:23:29.998Z,3.36
2023-01-17T05:28:33.722Z,3.54
2023-01-17T05:33:37.542Z,3.41
2023-01-17T05:38:41.037Z,3.82
2023-01-17T05:43:44.448Z,3.50
2023-01-17T05:48:47.952Z,2.65
2023-01-17T05:53:51.214Z,2.87
2023-01-17T05:58:54.703Z,3.31
2023-01-17T06:03:58.169Z,2.81
2023-01-17T06:09:02.210Z,3.10
2023-01-17T06:14:05.564Z,3.24
2023-01-17T06:19:10.619Z,3.04
2023-01-17T06:24:14.762Z,3.08
2023-01-17T06:29:18.409Z,2.75
2023-01-17T06:34:21.899Z,2.59
2023-01-17T06:39:25.343Z,2.55
2023-01-17T06:44:28.668Z,2.90
2023-01-17T06:49:40.970Z,2.91
2023-01-17T06:54:54.232Z,3.16
2023-01-17T06:59:57.736Z,3.07
2023-01-17T07:05:11.195Z,2.41
2023-01-17T07:10:16.685Z,2.85
2023-01-17T07:15:20.222Z,2.39
2023-01-17T07:20:24.009Z,2.59
2023-01-17T07:25:28.545Z,2.78
2023-01-17T07:30:42.132Z,3.17
2023-01-17T07:35:46.559Z,2.89
2023-01-17T07:40:49.966Z,3.45
2023-01-17T07:45:53.681Z,3.81
2023-01-17T07:50:58.642Z,4.32
2023-01-17T07:56:08.254Z,3.47
2023-01-17T08:01:16.847Z,4.55
2023-01-17T08:06:23.509Z,4.31
2023-01-17T08:11:37.192Z,4.83
2023-01-17T08:16:40.950Z,4.69
2023-01-17T08:21:44.419Z,4.79
2023-01-17T08:26:48.079Z,4.64
2023-01-17T08:31:51.963Z,5.16
2023-01-17T08:36:55.303Z,5.22
2023-01-17T08:41:59.067Z,4.41
2023-01-17T08:47:10.668Z,4.94
2023-01-17T08:52:15.414Z,5.30
2023-01-17T08:57:29.141Z,4.90
2023-01-17T09:02:42.741Z,5.35
2023-01-17T09:07:46.226Z,5.40
2023-01-17T09:12:49.902Z,5.12
2023-01-17T09:17:57.185Z,4.58
2023-01-17T09:23:03.693Z,4.97
2023-01-17T09:28:07.331Z,5.52
2023-01-17T09:33:10.799Z,4.92
2023-01-17T09:38:14.413Z,5.73
2023-01-17T09:43:41.033Z,5.71
2023-01-17T09:48:45.796Z,5.63
2023-01-17T09:53:49.781Z,5.83
2023-01-17T09:59:12.245Z,6.04
2023-01-17T10:04:50.026Z,5.90
2023-01-17T10:10:11.074Z,5.93
2023-01-17T10:15:29.531Z,6.01
2023-01-17T10:20:54.980Z,5.69
2023-01-17T10:26:18.770Z,5.86
2023-01-17T10:31:41.499Z,5.82
2023-01-17T10:36:51.040Z,5.61
2023-01-17T10:42:24.598Z,5.74
2023-01-17T10:47:34.163Z,5.45
2023-01-17T10:52:53.901Z,5.34
2023-01-17T10:57:58.788Z,5.33
2023-01-17T11:03:07.087Z,5.17
2023-01-17T11:08:14.557Z,5.32
2023-01-17T11:13:35.362Z,5.47
2023-01-17T11:18:41.335Z,5.35
2023-01-17T11:23:51.895Z,5.24
2023-01-17T11:29:18.248Z,4.77
2023-01-17T11:34:27.566Z,4.96
2023-01-17T11:39:31.094Z,4.61
2023-01-17T11:44:36.827Z,4.90
2023-01-17T11:49:46.176Z,4.79
2023-01-17T11:54:51.568Z,4.87
2023-01-17T12:00:12.852Z,4.56
2023-01-17T12:05:52.475Z,4.93
2023-01-17T12:11:33.090Z,4.85
2023-01-17T12:16:39.633Z,4.72
2023-01-17T12:21:51.053Z,4.36
2023-01-17T12:27:17.653Z,4.01
2023-01-17T12:32:39.624Z,4.11
2023-01-17T12:37:57.348Z,3.56
2023-01-17T12:43:33.987Z,3.24
2023-01-17T12:48:40.102Z,3.23
2023-01-17T12:53:56.207Z,3.22
2023-01-17T13:00:01.912Z,3.12
2023-01-17T13:05:06.352Z,3.44
2023-01-17T13:10:26.987Z,3.46
2023-01-17T13:15:38.582Z,3.26
2023-01-17T13:21:02.771Z,3.04
2023-01-17T13:26:21.985Z,2.79
2023-01-17T13:31:49.426Z,3.28
2023-01-17T13:37:24.159Z,3.23
2023-01-17T13:42:57.319Z,3.15
2023-01-17T13:48:15.646Z,3.27
2023-01-17T13:53:28.075Z,3.26
2023-01-17T13:58:52.660Z,2.65
2023-01-17T14:03:56.181Z,3.18
2023-01-17T14:09:13.443Z,3.32
2023-01-17T14:14:44.882Z,3.20
2023-01-17T14:19:51.913Z,3.29
2023-01-17T14:25:20.929Z,2.54
2023-01-17T14:30:34.772Z,3.25
2023-01-17T14:35:41.261Z,3.39
2023-01-17T14:40:53.531Z,2.78
2023-01-17T14:46:05.628Z,3.01
2023-01-17T14:51:23.688Z,4.09
2023-01-17T14:56:29.402Z,3.92
2023-01-17T15:01:34.337Z,3.81
2023-01-17T15:06:42.726Z,3.74
2023-01-17T15:11:49.339Z,3.91
2023-01-17T15:16:52.994Z,3.53
2023-01-17T15:21:57.680Z,3.25
2023-01-17T15:27:02.548Z,4.06
2023-01-17T15:32:08.090Z,3.21
2023-01-17T15:37:31.970Z,4.14
2023-01-17T15:42:46.992Z,3.86
2023-01-17T15:47:50.412Z,3.71
2023-01-17T15:52:58.575Z,3.87
2023-01-17T15:58:02.799Z,3.90
2023-01-17T16:03:26.330Z,3.69
2023-01-17T16:08:29.798Z,3.85
2023-01-17T16:13:37.960Z,3.68
2023-01-17T16:18:41.657Z,3.76
2023-01-17T16:23:45.687Z,3.57
2023-01-17T16:28:49.687Z,3.60
2023-01-17T16:33:53.204Z,3.42
2023-01-17T16:38:56.897Z,3.51
2023-01-17T16:44:03.261Z,3.79
2023-01-17T16:49:06.926Z,3.39
2023-01-17T16:54:10.574Z,3.49
2023-01-17T16:59:15.047Z,3.72
2023-01-17T17:04:18.563Z,3.76
2023-01-17T17:09:23.189Z,3.47
2023-01-17T17:14:26.982Z,3.70
2023-01-17T17:19:30.320Z,3.04
2023-01-17T17:24:34.086Z,3.65
2023-01-17T17:29:37.466Z,3.49
2023-01-17T17:34:41.055Z,3.11
2023-01-17T17:39:45.391Z,3.45
2023-01-17T17:44:48.665Z,2.34
2023-01-17T17:49:52.217Z,3.54
2023-01-17T17:54:55.574Z,3.21
2023-01-17T18:00:00.599Z,3.16
2023-01-17T18:05:04.011Z,2.94
2023-01-17T18:10:08.339Z,3.46
2023-01-17T18:15:12.007Z,3.12
2023-01-17T18:20:16.273Z,3.45
2023-01-17T18:25:19.820Z,3.34
2023-01-17T18:30:23.143Z,2.40
2023-01-17T18:35:26.537Z,2.84
2023-01-17T18:40:39.931Z,3.06
2023-01-17T18:45:54.349Z,3.30
2023-01-17T18:51:02.863Z,2.99
2023-01-17T18:56:21.931Z,2.97
2023-01-17T19:01:30.338Z,3.12
2023-01-17T19:06:39.897Z,2.41
2023-01-17T19:11:45.695Z,2.82
2023-01-17T19:16:49.196Z,2.12
2023-01-17T19:21:53.264Z,2.88
2023-01-17T19:26:57.314Z,2.74
2023-01-17T19:32:00.966Z,2.78
2023-01-17T19:37:14.235Z,2.66
2023-01-17T19:42:17.736Z,2.23
2023-01-17T19:47:20.976Z,2.52
2023-01-17T19:52:25.232Z,3.07
2023-01-17T19:57:35.546Z,3.20
2023-01-17T20:02:39.667Z,2.94
2023-01-17T20:07:51.169Z,3.12
2023-01-17T20:12:54.854Z,2.98
2023-01-17T20:17:59.064Z,3.17
2023-01-17T20:23:12.727Z,2.77
2023-01-17T20:28:16.736Z,2.16
2023-01-17T20:33:21.707Z,2.75
2023-01-17T20:38:30.741Z,2.99
2023-01-17T20:43:36.318Z,3.06
2023-01-17T20:48:52.629Z,2.84
2023-01-17T20:53:59.126Z,2.92
2023-01-17T20:59:07.255Z,3.11
2023-01-17T21:04:11.656Z,3.04
2023-01-17T21:09:23.074Z,2.76
2023-01-17T21:14:30.590Z,3.16
2023-01-17T21:19:34.529Z,3.13
2023-01-17T21:24:37.966Z,3.15
2023-01-17T21:29:41.703Z,3.21
2023-01-17T21:34:47.521Z,3.19
2023-01-17T21:39:55.703Z,2.96
2023-01-17T21:44:59.301Z,2.91
2023-01-17T21:50:02.949Z,2.87
2023-01-17T21:55:25.213Z,3.36
2023-01-17T22:00:28.784Z,3.23
2023-01-17T22:05:34.078Z,3.43
2023-01-17T22:10:45.280Z,3.49
2023-01-17T22:15:59.638Z,3.45
2023-01-17T22:21:13.096Z,3.72
2023-01-17T22:26:17.024Z,3.58
2023-01-17T22:31:24.321Z,3.84
2023-01-17T22:36:28.052Z,3.49
2023-01-17T22:41:33.107Z,3.81
2023-01-17T22:46:40.126Z,3.98
2023-01-17T22:51:43.861Z,3.59
2023-01-17T22:56:47.346Z,3.80
2023-01-17T23:01:50.688Z,3.71
2023-01-17T23:06:54.340Z,3.74
2023-01-17T23:11:57.943Z,3.88
2023-01-17T23:17:23.143Z,4.11
2023-01-17T23:22:29.104Z,4.14
2023-01-17T23:28:02.368Z,3.99
2023-01-17T23:33:09.153Z,3.90
2023-01-17T23:38:32.140Z,4.08
2023-01-17T23:43:45.860Z,3.92
2023-01-17T23:48:52.866Z,4.03
2023-01-17T23:54:06.015Z,3.85
2023-01-17T23:59:09.882Z,3.85
